Time;durP1;ratioP1;P1;durP2;ratioP2;P2;SDS_P1;SDS_P2;PMS_P1;PMS_P2;Temp;Humidity;BMP_temperature;BMP_pressure;BME280_temperature;BME280_humidity;BME280_pressure;Samples;Min_cycle;Max_cycle;Signal;HPM_P1;HPM_P2
2023/05/01 00:02:19;;;;;;;7.38;5.20;;;9.40;99.90;;;;;;6184363;23;20013;-80
2023/05/01 00:04:44;;;;;;;5.95;4.65;;;9.30;99.90;;;;;;6186041;23;20386;-80
2023/05/01 00:07:10;;;;;;;6.40;5.05;;;9.30;99.90;;;;;;6184604;23;20017;-80
2023/05/01 00:09:36;;;;;;;8.35;5.43;;;9.20;99.90;;;;;;6159260;23;20017;-80
2023/05/01 00:12:02;;;;;;;6.50;5.20;;;9.10;99.90;;;;;;6159545;23;20009;-80
2023/05/01 00:14:28;;;;;;;8.05;5.55;;;8.90;99.90;;;;;;6185647;23;20477;-80
2023/05/01 00:16:54;;;;;;;6.88;5.20;;;8.80;99.90;;;;;;6184064;23;20020;-80
2023/05/01 00:19:20;;;;;;;7.70;5.03;;;8.70;99.90;;;;;;6159247;23;20017;-80
2023/05/01 00:21:47;;;;;;;8.38;5.90;;;8.60;99.90;;;;;;6183823;23;20009;-80
2023/05/01 00:24:15;;;;;;;7.47;5.22;;;8.50;99.90;;;;;;6159187;23;20021;-80
2023/05/01 00:26:41;;;;;;;6.65;5.47;;;8.50;99.90;;;;;;6186551;23;20005;-80
2023/05/01 00:29:07;;;;;;;7.40;5.20;;;8.40;99.90;;;;;;6185866;23;20032;-80
2023/05/01 00:31:33;;;;;;;7.07;5.18;;;8.40;99.90;;;;;;6184472;23;20144;-80
2023/05/01 00:33:58;;;;;;;6.28;5.13;;;8.30;99.90;;;;;;6183976;23;20406;-80
2023/05/01 00:36:24;;;;;;;7.78;5.20;;;8.40;99.90;;;;;;6184012;23;20485;-80
2023/05/01 00:38:50;;;;;;;8.80;5.80;;;8.40;99.90;;;;;;6183991;23;20075;-80
2023/05/01 00:41:16;;;;;;;8.07;5.28;;;8.40;99.90;;;;;;6185422;23;20013;-80
2023/05/01 00:43:41;;;;;;;8.68;5.97;;;8.40;99.90;;;;;;6183935;23;20092;-80
2023/05/01 00:46:08;;;;;;;10.73;5.05;;;8.40;99.90;;;;;;6185921;23;20024;-80
2023/05/01 00:48:34;;;;;;;8.73;5.60;;;8.40;99.90;;;;;;6183982;23;20020;-80
2023/05/01 00:51:02;;;;;;;8.18;5.53;;;8.40;99.90;;;;;;6184015;23;20016;-80
2023/05/01 00:53:28;;;;;;;8.52;5.97;;;8.30;99.90;;;;;;6183974;23;20013;-80
2023/05/01 00:55:57;;;;;;;7.55;5.30;;;8.30;99.90;;;;;;6185781;23;20080;-80
2023/05/01 00:58:22;;;;;;;7.07;5.20;;;8.20;99.90;;;;;;6183831;23;20048;-80
2023/05/01 01:00:48;;;;;;;7.15;5.43;;;8.20;99.90;;;;;;6183887;23;20024;-80
2023/05/01 01:03:14;;;;;;;9.13;5.88;;;8.10;99.90;;;;;;6183755;23;20025;-80
2023/05/01 01:05:51;;;;;;;6.57;5.68;;;8.10;99.90;;;;;;6185816;23;20017;-80
2023/05/01 01:08:48;;;;;;;9.40;5.38;;;8.10;99.90;;;;;;6185543;23;20009;-80
2023/05/01 01:11:28;;;;;;;7.50;5.00;;;8.10;99.90;;;;;;6185438;23;20013;-80
2023/05/01 01:14:05;;;;;;;7.78;5.45;;;8.00;99.90;;;;;;6183908;23;20017;-80
2023/05/01 01:16:44;;;;;;;9.15;6.50;;;8.00;99.90;;;;;;6184361;23;20046;-80
2023/05/01 01:19:12;;;;;;;8.38;6.20;;;8.10;99.90;;;;;;6159088;23;20020;-80
2023/05/01 01:21:43;;;;;;;7.70;6.28;;;8.00;99.90;;;;;;6183953;23;20024;-80
2023/05/01 01:24:32;;;;;;;6.97;5.38;;;8.10;99.90;;;;;;6183779;23;20017;-80
2023/05/01 01:27:17;;;;;;;7.13;5.57;;;8.10;99.90;;;;;;6183939;23;20024;-80
2023/05/01 01:29:58;;;;;;;6.65;5.30;;;8.00;99.90;;;;;;6158920;23;20052;-80
2023/05/01 01:32:48;;;;;;;8.15;5.45;;;8.00;99.90;;;;;;6159160;23;20092;-80
2023/05/01 01:35:19;;;;;;;8.30;5.30;;;8.00;99.90;;;;;;6183731;23;20021;-80
2023/05/01 01:37:56;;;;;;;7.03;5.38;;;8.00;99.90;;;;;;6184208;23;20059;-80
2023/05/01 01:40:27;;;;;;;7.63;5.75;;;7.90;99.90;;;;;;6183977;23;20342;-80
2023/05/01 01:43:14;;;;;;;8.15;5.55;;;7.80;99.90;;;;;;6185079;23;20154;-79
2023/05/01 01:45:42;;;;;;;7.32;4.97;;;7.70;99.90;;;;;;6187174;23;20464;-80
2023/05/01 01:48:18;;;;;;;7.57;6.30;;;7.60;99.90;;;;;;6160605;23;20083;-80
2023/05/01 01:50:45;;;;;;;6.22;5.43;;;7.50;99.90;;;;;;6185451;23;20016;-79
2023/05/01 01:53:16;;;;;;;8.20;5.20;;;7.40;99.90;;;;;;6186976;23;20020;-80
2023/05/01 01:55:43;;;;;;;6.57;5.53;;;7.30;99.90;;;;;;6187333;23;20009;-80
2023/05/01 01:58:11;;;;;;;7.00;5.72;;;7.30;99.90;;;;;;6185539;23;20039;-79
2023/05/01 02:00:40;;;;;;;8.15;5.68;;;7.20;99.90;;;;;;6185807;23;20438;-79
2023/05/01 02:03:06;;;;;;;8.65;5.90;;;7.10;99.90;;;;;;6185450;23;20374;-80
2023/05/01 02:05:33;;;;;;;10.23;6.05;;;7.00;99.90;;;;;;6187030;23;20048;-80
2023/05/01 02:07:59;;;;;;;9.95;6.50;;;7.00;99.90;;;;;;6187219;23;20124;-79
2023/05/01 02:10:26;;;;;;;7.55;5.70;;;7.00;99.90;;;;;;6185404;23;20084;-79
2023/05/01 02:12:55;;;;;;;8.25;6.43;;;6.90;99.90;;;;;;6160610;23;20056;-79
2023/05/01 02:15:22;;;;;;;8.88;6.03;;;7.00;99.90;;;;;;6160440;23;20446;-79
2023/05/01 02:17:50;;;;;;;9.07;5.80;;;6.90;99.90;;;;;;6187061;23;20013;-79
2023/05/01 02:20:16;;;;;;;7.35;5.10;;;6.80;99.90;;;;;;6186898;23;20080;-79
2023/05/01 02:22:44;;;;;;;8.02;5.32;;;6.70;99.90;;;;;;6160232;23;20017;-79
2023/05/01 02:25:11;;;;;;;7.50;5.68;;;6.80;99.90;;;;;;6160258;23;20014;-79
2023/05/01 02:27:42;;;;;;;7.78;5.78;;;6.80;99.90;;;;;;6186940;23;20023;-79
2023/05/01 02:30:08;;;;;;;9.75;5.55;;;6.80;99.90;;;;;;6187051;23;20088;-79
2023/05/01 02:32:34;;;;;;;8.48;6.03;;;6.80;99.90;;;;;;6135689;23;20378;-79
2023/05/01 02:35:00;;;;;;;7.13;5.70;;;6.80;99.90;;;;;;6160104;23;20024;-79
2023/05/01 02:37:27;;;;;;;7.57;6.10;;;6.90;99.90;;;;;;6135970;23;20024;-79
2023/05/01 02:39:53;;;;;;;7.00;5.50;;;6.80;99.90;;;;;;6186909;23;20009;-79
2023/05/01 02:42:20;;;;;;;10.00;5.65;;;6.90;99.90;;;;;;6160232;23;20347;-79
2023/05/01 02:44:56;;;;;;;6.97;5.68;;;6.90;99.90;;;;;;6135378;23;20021;-79
2023/05/01 02:47:23;;;;;;;9.75;5.68;;;6.90;99.90;;;;;;6160125;23;20024;-79
2023/05/01 02:49:50;;;;;;;7.32;5.00;;;6.90;99.90;;;;;;6186774;23;20005;-79
2023/05/01 02:52:18;;;;;;;8.38;5.53;;;6.90;99.90;;;;;;6135837;23;20021;-79
2023/05/01 02:54:44;;;;;;;8.57;6.20;;;6.90;99.90;;;;;;6185878;23;20024;-79
2023/05/01 02:57:11;;;;;;;9.20;6.63;;;6.90;99.90;;;;;;6160203;23;20280;-79
2023/05/01 02:59:36;;;;;;;8.27;5.85;;;6.90;99.90;;;;;;6160049;23;20021;-79
2023/05/01 03:02:02;;;;;;;8.00;5.50;;;6.80;99.90;;;;;;6160345;23;20032;-79
2023/05/01 03:04:28;;;;;;;7.95;6.22;;;6.70;99.90;;;;;;6159707;23;20450;-79
2023/05/01 03:06:54;;;;;;;9.73;5.95;;;6.60;99.90;;;;;;6186597;23;20084;-79
2023/05/01 03:09:20;;;;;;;8.05;5.90;;;6.60;99.90;;;;;;6186615;23;20009;-79
2023/05/01 03:11:46;;;;;;;7.22;5.60;;;6.50;99.90;;;;;;6159870;23;20140;-79
2023/05/01 03:14:12;;;;;;;7.85;5.03;;;6.40;99.90;;;;;;6159895;23;20072;-79
2023/05/01 03:16:39;;;;;;;7.53;5.15;;;6.30;99.90;;;;;;6160713;23;20447;-79
2023/05/01 03:19:05;;;;;;;7.07;5.50;;;6.20;99.90;;;;;;6159773;23;20299;-79
2023/05/01 03:21:31;;;;;;;9.93;5.47;;;6.30;99.90;;;;;;6179007;23;20023;-79
2023/05/01 03:23:57;;;;;;;6.05;5.10;;;6.20;99.90;;;;;;6184511;23;20096;-79
2023/05/01 03:26:23;;;;;;;7.93;5.57;;;6.20;99.90;;;;;;6185034;23;20045;-79
2023/05/01 03:28:48;;;;;;;9.38;5.80;;;6.10;99.90;;;;;;6186071;23;20072;-79
2023/05/01 03:31:14;;;;;;;11.95;6.65;;;6.00;99.90;;;;;;6159755;23;20048;-79
2023/05/01 03:33:40;;;;;;;7.28;6.30;;;6.00;99.90;;;;;;6159716;23;20096;-79
2023/05/01 03:36:08;;;;;;;8.98;6.38;;;6.00;99.90;;;;;;6184422;23;20013;-79
2023/05/01 03:38:33;;;;;;;12.60;7.07;;;6.00;99.90;;;;;;6184433;23;20019;-79
2023/05/01 03:40:59;;;;;;;8.52;6.38;;;6.00;99.90;;;;;;6184339;23;20363;-79
2023/05/01 03:43:25;;;;;;;8.23;5.88;;;6.00;99.90;;;;;;6186122;23;20070;-79
2023/05/01 03:45:51;;;;;;;8.73;6.22;;;6.00;99.90;;;;;;6184342;23;20339;-79
2023/05/01 03:48:20;;;;;;;8.00;6.55;;;6.00;99.90;;;;;;6186190;23;20013;-79
2023/05/01 03:50:45;;;;;;;10.23;6.78;;;6.00;99.90;;;;;;6184206;23;20020;-79
2023/05/01 03:53:12;;;;;;;8.10;6.60;;;6.00;99.90;;;;;;6186079;23;20009;-79
2023/05/01 03:55:39;;;;;;;10.18;7.57;;;5.90;99.90;;;;;;6184281;23;20092;-79
2023/05/01 03:58:05;;;;;;;11.70;7.53;;;5.90;99.90;;;;;;6186118;23;20084;-79
2023/05/01 04:00:32;;;;;;;6.00;5.40;;;5.90;99.90;;;;;;6186195;23;20373;-79
2023/05/01 04:02:57;;;;;;;7.35;5.72;;;6.00;99.90;;;;;;6186157;23;20021;-79
2023/05/01 04:05:23;;;;;;;8.23;5.55;;;5.90;99.90;;;;;;6184019;23;20012;-79
2023/05/01 04:07:49;;;;;;;8.18;5.80;;;5.90;99.90;;;;;;6186132;23;20125;-79
2023/05/01 04:10:15;;;;;;;9.15;5.30;;;6.00;99.90;;;;;;6184173;23;20012;-79
2023/05/01 04:12:41;;;;;;;10.15;6.15;;;6.00;99.90;;;;;;6184122;23;20085;-79
2023/05/01 04:15:08;;;;;;;7.40;5.93;;;6.00;99.90;;;;;;6186044;23;20040;-79
2023/05/01 04:17:35;;;;;;;7.35;5.85;;;6.00;99.90;;;;;;6186061;23;20088;-79
2023/05/01 04:20:01;;;;;;;9.13;6.15;;;6.00;99.90;;;;;;6186443;23;20024;-79
2023/05/01 04:22:27;;;;;;;8.82;6.05;;;6.00;99.90;;;;;;6185636;23;20017;-79
2023/05/01 04:24:53;;;;;;;7.85;6.57;;;5.90;99.90;;;;;;6185834;23;20016;-79
2023/05/01 04:27:19;;;;;;;7.50;5.90;;;5.90;99.90;;;;;;6185942;23;20016;-79
2023/05/01 04:29:45;;;;;;;8.93;7.35;;;5.90;99.90;;;;;;6186287;23;20084;-79
2023/05/01 04:32:10;;;;;;;8.23;6.72;;;6.00;99.90;;;;;;6134598;23;20084;-79
2023/05/01 04:34:36;;;;;;;9.02;5.85;;;6.00;99.90;;;;;;6186394;23;20386;-79
2023/05/01 04:37:02;;;;;;;7.05;6.07;;;6.00;99.90;;;;;;6185879;23;20125;-79
2023/05/01 04:39:28;;;;;;;11.48;6.68;;;6.00;99.90;;;;;;6186473;23;20341;-79
2023/05/01 04:41:53;;;;;;;7.55;6.22;;;6.10;99.90;;;;;;6185829;23;20442;-79
2023/05/01 04:44:19;;;;;;;11.80;7.70;;;6.20;99.90;;;;;;6159092;23;20028;-79
2023/05/01 04:46:45;;;;;;;9.77;6.55;;;6.30;99.90;;;;;;6185964;23;20010;-79
2023/05/01 04:49:11;;;;;;;10.10;7.35;;;6.40;99.90;;;;;;6186013;23;20022;-79
2023/05/01 04:51:36;;;;;;;11.13;7.53;;;6.50;99.90;;;;;;6159189;23;20017;-79
2023/05/01 04:54:03;;;;;;;15.13;8.30;;;6.60;99.90;;;;;;6159168;23;20017;-79
2023/05/01 04:56:29;;;;;;;11.13;8.38;;;6.70;99.90;;;;;;6185845;23;20016;-79
2023/05/01 04:58:55;;;;;;;12.00;7.53;;;6.80;99.90;;;;;;6185460;23;20558;-80
2023/05/01 05:01:21;;;;;;;10.20;7.35;;;6.90;99.90;;;;;;6185539;23;20145;-79
2023/05/01 05:03:46;;;;;;;9.82;7.50;;;7.00;99.90;;;;;;6159401;23;20017;-79
2023/05/01 05:06:12;;;;;;;9.20;6.93;;;7.00;99.90;;;;;;6185473;23;20020;-79
2023/05/01 05:08:37;;;;;;;10.02;7.85;;;7.20;99.90;;;;;;6159656;23;20100;-79
2023/05/01 05:11:03;;;;;;;9.82;7.15;;;7.20;99.90;;;;;;6185721;23;20009;-79
2023/05/01 05:13:29;;;;;;;10.95;7.90;;;7.20;99.90;;;;;;6185779;23;20418;-79
2023/05/01 05:15:54;;;;;;;15.27;8.25;;;7.40;99.90;;;;;;6185842;23;20325;-79
2023/05/01 05:18:20;;;;;;;9.70;6.70;;;7.40;99.90;;;;;;6187227;23;20044;-79
2023/05/01 05:20:46;;;;;;;9.65;6.82;;;7.40;99.90;;;;;;6187208;23;20021;-79
2023/05/01 05:23:12;;;;;;;10.50;7.35;;;7.50;99.90;;;;;;6187521;23;20017;-79
2023/05/01 05:25:37;;;;;;;10.35;7.50;;;7.50;99.90;;;;;;6161250;23;20064;-79
2023/05/01 05:28:03;;;;;;;10.23;7.45;;;7.50;99.90;;;;;;6187604;23;20071;-79
2023/05/01 05:30:29;;;;;;;12.55;7.70;;;7.60;99.90;;;;;;6187561;23;20051;-79
2023/05/01 05:32:55;;;;;;;10.23;8.15;;;7.60;99.90;;;;;;6160966;23;20013;-79
2023/05/01 05:35:21;;;;;;;14.75;8.68;;;7.70;99.90;;;;;;6161293;23;20009;-79
2023/05/01 05:37:46;;;;;;;11.10;8.35;;;7.80;99.90;;;;;;6160898;23;20144;-79
2023/05/01 05:40:12;;;;;;;10.27;7.47;;;7.90;99.90;;;;;;6187558;23;20009;-79
2023/05/01 05:42:38;;;;;;;8.95;7.30;;;8.00;99.90;;;;;;6187509;23;20017;-79
2023/05/01 05:45:05;;;;;;;11.48;7.28;;;8.00;99.90;;;;;;6160534;23;20087;-79
2023/05/01 05:47:30;;;;;;;9.85;7.95;;;8.10;99.90;;;;;;6160724;23;20048;-79
2023/05/01 05:49:56;;;;;;;10.40;7.65;;;8.30;99.90;;;;;;6187053;23;20304;-79
2023/05/01 05:52:22;;;;;;;11.13;7.68;;;8.40;99.90;;;;;;6160520;23;20047;-79
2023/05/01 05:54:48;;;;;;;11.57;7.63;;;8.40;99.90;;;;;;6160502;23;20059;-79
2023/05/01 05:57:13;;;;;;;13.10;8.23;;;8.50;99.90;;;;;;6187282;23;20017;-79
2023/05/01 05:59:39;;;;;;;12.60;7.32;;;8.60;99.90;;;;;;6160550;23;20344;-79
2023/05/01 06:02:05;;;;;;;12.38;7.78;;;8.70;99.90;;;;;;6187491;23;20009;-79
2023/05/01 06:04:31;;;;;;;12.05;7.53;;;8.80;99.90;;;;;;6187120;23;20009;-79
2023/05/01 06:06:57;;;;;;;16.98;7.63;;;8.90;99.90;;;;;;6186814;23;20488;-79
2023/05/01 06:09:23;;;;;;;10.55;7.95;;;9.00;99.90;;;;;;6187446;23;20019;-80
2023/05/01 06:11:48;;;;;;;8.95;7.88;;;9.00;99.90;;;;;;6160465;23;20110;-80
2023/05/01 06:14:15;;;;;;;11.20;8.18;;;9.10;99.90;;;;;;6160446;23;20090;-80
2023/05/01 06:16:41;;;;;;;10.95;7.95;;;9.20;99.90;;;;;;6187227;23;20148;-80
2023/05/01 06:19:09;;;;;;;9.93;7.63;;;9.20;99.90;;;;;;6160529;23;20021;-79
2023/05/01 06:21:35;;;;;;;12.32;8.73;;;9.30;99.90;;;;;;6186788;23;20087;-80
2023/05/01 06:24:00;;;;;;;11.40;8.32;;;9.30;99.90;;;;;;6187026;23;20405;-80
2023/05/01 06:26:27;;;;;;;12.63;8.93;;;9.40;99.90;;;;;;6187274;23;20019;-80
2023/05/01 06:28:53;;;;;;;13.82;8.20;;;9.40;99.90;;;;;;6160178;23;20013;-79
2023/05/01 06:31:19;;;;;;;9.75;8.63;;;9.50;99.90;;;;;;6186644;23;20013;-79
2023/05/01 06:33:45;;;;;;;10.85;8.10;;;9.50;99.90;;;;;;6161134;23;20013;-79
2023/05/01 06:36:11;;;;;;;12.68;8.32;;;9.60;99.90;;;;;;6186987;23;20065;-79
2023/05/01 06:38:36;;;;;;;12.85;8.75;;;9.70;99.90;;;;;;6186874;23;20092;-79
2023/05/01 06:41:04;;;;;;;11.57;8.98;;;9.70;99.90;;;;;;6160080;23;20500;-80
2023/05/01 06:43:30;;;;;;;13.02;8.50;;;9.80;99.90;;;;;;6187038;23;20019;-80
2023/05/01 06:45:58;;;;;;;11.77;8.85;;;9.90;99.90;;;;;;6186387;23;20076;-80
2023/05/01 06:48:24;;;;;;;9.93;8.02;;;10.00;99.90;;;;;;6186902;23;20080;-80
2023/05/01 06:50:49;;;;;;;10.90;8.30;;;10.00;99.90;;;;;;6160007;23;20056;-80
2023/05/01 06:53:15;;;;;;;11.38;8.75;;;10.10;99.90;;;;;;6160273;23;20024;-80
2023/05/01 06:55:40;;;;;;;11.77;8.68;;;10.30;99.90;;;;;;6186788;23;20015;-80
2023/05/01 06:58:06;;;;;;;10.07;8.13;;;10.30;99.90;;;;;;6160070;23;20012;-80
2023/05/01 07:00:36;;;;;;;10.70;8.50;;;10.40;99.90;;;;;;6160505;23;20017;-80
2023/05/01 07:03:02;;;;;;;11.23;7.70;;;10.40;99.90;;;;;;6159941;23;20390;-80
2023/05/01 07:05:29;;;;;;;11.63;8.68;;;10.50;99.90;;;;;;6186685;23;20017;-80
2023/05/01 07:07:54;;;;;;;11.73;8.23;;;10.60;99.90;;;;;;6160024;23;20319;-80
2023/05/01 07:10:20;;;;;;;8.68;7.20;;;10.70;99.90;;;;;;6186575;23;20507;-80
2023/05/01 07:12:46;;;;;;;10.55;8.05;;;10.80;99.90;;;;;;6186587;23;20030;-80
2023/05/01 07:15:14;;;;;;;11.13;7.97;;;10.80;99.90;;;;;;6186552;23;20013;-80
2023/05/01 07:17:39;;;;;;;11.05;7.47;;;10.90;99.90;;;;;;6186535;23;20015;-80
2023/05/01 07:20:06;;;;;;;9.43;6.85;;;11.00;99.90;;;;;;6186160;23;20099;-80
2023/05/01 07:22:31;;;;;;;10.20;7.00;;;11.10;99.90;;;;;;6186533;23;20389;-80
2023/05/01 07:24:57;;;;;;;8.85;6.80;;;11.10;99.90;;;;;;6186480;23;20014;-80
2023/05/01 07:27:23;;;;;;;9.35;7.45;;;11.20;99.90;;;;;;6159801;23;20005;-80
2023/05/01 07:29:49;;;;;;;13.00;7.80;;;11.30;99.90;;;;;;6159736;23;20013;-80
2023/05/01 07:32:15;;;;;;;9.93;6.80;;;11.40;99.90;;;;;;6186430;23;20009;-80
2023/05/01 07:34:41;;;;;;;12.02;7.47;;;11.40;99.90;;;;;;6160570;23;20108;-80
2023/05/01 07:37:06;;;;;;;8.05;6.47;;;11.40;99.90;;;;;;6159800;23;20017;-80
2023/05/01 07:39:32;;;;;;;9.75;6.65;;;11.50;99.90;;;;;;6159406;23;20287;-80
2023/05/01 07:41:58;;;;;;;10.27;6.68;;;11.60;99.90;;;;;;6159642;23;20087;-80
2023/05/01 07:44:23;;;;;;;8.73;5.88;;;11.70;99.90;;;;;;6159553;23;20020;-80
2023/05/01 07:46:49;;;;;;;7.38;6.35;;;11.80;99.90;;;;;;6186185;23;20012;-80
2023/05/01 07:49:14;;;;;;;8.93;6.93;;;11.90;99.90;;;;;;6159443;23;20009;-80
2023/05/01 07:51:41;;;;;;;8.38;6.50;;;11.90;99.90;;;;;;6159345;23;20044;-80
2023/05/01 07:54:07;;;;;;;8.13;6.60;;;12.00;99.90;;;;;;6159573;23;20059;-80
2023/05/01 07:56:33;;;;;;;9.48;6.30;;;12.10;99.90;;;;;;6159482;23;20088;-80
2023/05/01 07:58:58;;;;;;;7.80;6.20;;;12.20;99.90;;;;;;6159474;23;20017;-80
2023/05/01 08:01:24;;;;;;;9.10;6.70;;;12.20;99.90;;;;;;6159483;23;20501;-80
2023/05/01 08:03:50;;;;;;;8.85;6.22;;;12.30;99.90;;;;;;6159233;23;20500;-80
2023/05/01 08:06:16;;;;;;;10.10;7.38;;;12.40;99.90;;;;;;6159361;23;20012;-80
2023/05/01 08:08:41;;;;;;;11.30;6.93;;;12.50;99.90;;;;;;6135194;23;20093;-80
2023/05/01 08:11:08;;;;;;;25.27;7.65;;;12.60;99.90;;;;;;6186011;23;20187;-80
2023/05/01 08:13:34;;;;;;;9.85;7.55;;;12.70;99.90;;;;;;6159302;23;20017;-79
2023/05/01 08:16:03;;;;;;;8.65;6.32;;;12.80;99.90;;;;;;6186024;23;20020;-80
2023/05/01 08:18:29;;;;;;;8.45;6.43;;;12.90;99.90;;;;;;6134522;23;20015;-80
2023/05/01 08:20:55;;;;;;;8.57;6.65;;;13.00;99.90;;;;;;6171165;23;20048;-80
2023/05/01 08:23:23;;;;;;;8.93;6.93;;;13.00;99.90;;;;;;6183953;23;20020;-80
2023/05/01 08:25:50;;;;;;;9.93;7.40;;;13.10;99.90;;;;;;6159199;23;20438;-80
2023/05/01 08:28:17;;;;;;;10.90;6.45;;;13.10;99.90;;;;;;6183964;23;20450;-80
2023/05/01 08:30:43;;;;;;;9.68;6.43;;;13.10;99.90;;;;;;6184006;23;20106;-80
2023/05/01 08:33:09;;;;;;;8.80;6.90;;;13.10;99.90;;;;;;6183955;23;20093;-80
2023/05/01 08:35:35;;;;;;;9.75;7.00;;;13.10;99.90;;;;;;6183935;23;20031;-80
2023/05/01 08:38:01;;;;;;;9.00;6.47;;;13.30;99.90;;;;;;6159113;23;20020;-80
2023/05/01 08:40:31;;;;;;;9.07;6.28;;;13.30;99.90;;;;;;6184427;23;20006;-80
2023/05/01 08:42:59;;;;;;;9.07;6.28;;;13.30;99.90;;;;;;6160126;23;20011;-80
2023/05/01 08:45:26;;;;;;;10.50;6.15;;;13.30;99.90;;;;;;6159293;23;20092;-80
2023/05/01 08:47:54;;;;;;;7.25;5.40;;;13.30;99.90;;;;;;6184024;23;20012;-80
2023/05/01 08:50:21;;;;;;;14.35;5.90;;;13.30;99.90;;;;;;6185779;23;20013;-80
2023/05/01 08:52:50;;;;;;;9.43;5.38;;;13.40;99.90;;;;;;6187110;23;20458;-81
2023/05/01 08:55:15;;;;;;;9.30;5.55;;;13.50;99.90;;;;;;6186014;23;20509;-80
2023/05/01 08:57:48;;;;;;;6.95;5.13;;;13.50;99.90;;;;;;6186378;23;20017;-80
2023/05/01 09:00:20;;;;;;;9.30;5.03;;;13.60;99.90;;;;;;6185997;23;20024;-80
2023/05/01 09:02:50;;;;;;;8.75;5.35;;;13.70;99.90;;;;;;6187900;23;20012;-80
2023/05/01 09:05:16;;;;;;;;;;;13.70;99.90;;;;;;6188227;23;20051;-80
2023/05/01 09:07:44;;;;;;;8.20;5.28;;;13.80;99.90;;;;;;6187819;23;19917;-80
2023/05/01 09:10:15;;;;;;;10.10;5.10;;;13.80;99.90;;;;;;6187766;23;20015;-80
2023/05/01 09:12:43;;;;;;;8.40;5.57;;;13.80;99.90;;;;;;6186119;23;20080;-80
2023/05/01 09:15:10;;;;;;;7.50;5.07;;;13.80;99.90;;;;;;6186720;23;20027;-80
2023/05/01 09:17:36;;;;;;;7.80;4.93;;;13.90;99.90;;;;;;6185840;23;20039;-80
2023/05/01 09:20:06;;;;;;;7.85;4.95;;;14.00;99.90;;;;;;6187226;23;20009;-80
2023/05/01 09:22:33;;;;;;;7.43;5.25;;;14.10;99.90;;;;;;6160901;23;20027;-80
2023/05/01 09:24:59;;;;;;;9.40;5.65;;;14.20;99.90;;;;;;6187450;23;20023;-80
2023/05/01 09:27:32;;;;;;;6.28;4.43;;;14.20;99.90;;;;;;6161144;23;20044;-80
2023/05/01 09:29:58;;;;;;;7.90;5.40;;;14.30;99.90;;;;;;6187576;23;20017;-80
2023/05/01 09:32:29;;;;;;;7.55;5.13;;;14.30;99.90;;;;;;6160981;23;20013;-80
2023/05/01 09:35:08;;;;;;;11.80;5.28;;;14.40;99.90;;;;;;6187945;23;20028;-80
2023/05/01 09:37:33;;;;;;;8.60;5.35;;;14.50;99.90;;;;;;6187564;23;20024;-80
2023/05/01 09:40:03;;;;;;;7.00;4.97;;;14.50;99.20;;;;;;6187378;23;20013;-80
2023/05/01 09:42:31;;;;;;;8.15;4.82;;;14.60;99.90;;;;;;6187495;23;20016;-80
2023/05/01 09:45:00;;;;;;;6.35;4.40;;;14.70;97.30;;;;;;6187274;23;20016;-80
2023/05/01 09:47:29;;;;;;;8.73;4.88;;;14.70;96.30;;;;;;6187013;23;20092;-80
2023/05/01 09:49:56;;;;;;;11.30;5.93;;;14.80;96.00;;;;;;6187322;23;20009;-80
2023/05/01 09:52:32;;;;;;;8.20;4.75;;;14.90;96.50;;;;;;6187258;23;20083;-80
2023/05/01 09:55:17;;;;;;;6.28;4.20;;;14.90;96.50;;;;;;6161584;23;20464;-80
2023/05/01 09:57:45;;;;;;;8.68;5.03;;;15.00;96.70;;;;;;6187346;23;20013;-80
2023/05/01 10:00:14;;;;;;;6.13;3.20;;;15.10;96.60;;;;;;6187168;23;20037;-80
2023/05/01 10:02:42;;;;;;;6.28;3.08;;;15.10;96.50;;;;;;6186888;23;20009;-80
2023/05/01 10:05:09;;;;;;;7.13;3.40;;;15.20;95.60;;;;;;6187098;23;20017;-80
2023/05/01 10:07:35;;;;;;;7.22;3.45;;;15.30;96.00;;;;;;6187184;23;20382;-81
2023/05/01 10:10:20;;;;;;;8.05;3.38;;;15.40;96.00;;;;;;6187035;23;20013;-80
2023/05/01 10:12:47;;;;;;;6.63;3.35;;;15.50;96.40;;;;;;6160391;23;20092;-80
2023/05/01 10:15:13;;;;;;;6.20;3.60;;;15.60;97.00;;;;;;6160394;23;20020;-81
2023/05/01 10:17:40;;;;;;;6.60;3.42;;;15.70;96.70;;;;;;6187201;23;20013;-80
2023/05/01 10:20:08;;;;;;;4.60;2.70;;;15.80;94.90;;;;;;6186616;23;20020;-80
2023/05/01 10:22:33;;;;;;;4.05;2.50;;;15.90;94.20;;;;;;6160412;23;20454;-80
2023/05/01 10:25:00;;;;;;;5.93;3.28;;;16.00;94.30;;;;;;6187056;23;20010;-80
2023/05/01 10:27:26;;;;;;;5.57;3.63;;;16.10;95.10;;;;;;6160367;23;20084;-81
2023/05/01 10:29:52;;;;;;;5.63;3.30;;;16.10;92.10;;;;;;6187126;23;20051;-81
2023/05/01 10:32:19;;;;;;;5.47;2.78;;;16.10;91.20;;;;;;6136680;23;20064;-81
2023/05/01 10:34:56;;;;;;;5.57;3.40;;;16.20;93.60;;;;;;6187064;23;20015;-80
2023/05/01 10:37:28;;;;;;;5.80;3.30;;;16.30;94.10;;;;;;6187186;23;20079;-80
2023/05/01 10:39:54;;;;;;;6.47;3.75;;;16.40;93.10;;;;;;6186795;23;20037;-80
2023/05/01 10:42:20;;;;;;;6.47;3.42;;;16.50;93.50;;;;;;6160151;23;20009;-80
2023/05/01 10:44:46;;;;;;;4.00;3.15;;;16.50;91.00;;;;;;6160192;23;20079;-81
2023/05/01 10:47:26;;;;;;;7.43;3.78;;;16.50;91.30;;;;;;6186568;23;20017;-81
2023/05/01 10:50:14;;;;;;;5.90;3.20;;;16.50;91.90;;;;;;6160241;23;20052;-81
2023/05/01 10:53:10;;;;;;;5.97;3.08;;;16.60;91.80;;;;;;6160286;23;20345;-81
2023/05/01 10:55:43;;;;;;;6.45;3.45;;;16.70;90.00;;;;;;6160703;23;20020;-81
2023/05/01 10:58:32;;;;;;;7.13;3.70;;;16.80;92.20;;;;;;6186845;23;20427;-80
2023/05/01 11:01:27;;;;;;;5.68;3.40;;;17.00;92.00;;;;;;6186502;23;20024;-80
2023/05/01 11:03:54;;;;;;;6.30;3.40;;;17.00;91.70;;;;;;6186838;23;20009;-80
2023/05/01 11:06:20;;;;;;;5.53;3.15;;;17.10;93.40;;;;;;6186818;23;20374;-80
2023/05/01 11:08:46;;;;;;;6.20;3.10;;;17.30;93.70;;;;;;6186826;23;20017;-80
2023/05/01 11:11:20;;;;;;;5.32;2.70;;;17.30;93.40;;;;;;6186564;23;20437;-81
2023/05/01 11:14:05;;;;;;;5.47;2.80;;;17.40;92.30;;;;;;6186357;23;20013;-80
2023/05/01 11:16:36;;;;;;;6.05;3.88;;;17.50;92.80;;;;;;6160013;23;20024;-80
2023/05/01 11:19:08;;;;;;;8.82;3.30;;;17.70;93.10;;;;;;6159988;23;20089;-80
2023/05/01 11:21:36;;;;;;;8.80;3.60;;;17.70;91.80;;;;;;6185955;23;20020;-80
2023/05/01 11:24:03;;;;;;;6.72;3.65;;;17.60;89.90;;;;;;6186396;23;20075;-80
2023/05/01 11:26:29;;;;;;;5.68;3.63;;;17.60;90.30;;;;;;6186487;23;20020;-80
2023/05/01 11:28:57;;;;;;;6.32;3.42;;;17.70;91.60;;;;;;6186437;23;20096;-80
2023/05/01 11:31:25;;;;;;;6.60;3.45;;;17.90;92.00;;;;;;6159843;23;20013;-80
2023/05/01 11:33:51;;;;;;;6.00;3.65;;;18.10;92.10;;;;;;6186237;23;20017;-80
2023/05/01 11:36:18;;;;;;;5.60;3.72;;;18.10;90.20;;;;;;6186173;23;20041;-80
2023/05/01 11:38:58;;;;;;;4.88;3.20;;;18.20;91.00;;;;;;6186582;23;20009;-80
2023/05/01 11:41:25;;;;;;;4.85;3.20;;;18.20;90.40;;;;;;6186543;23;20013;-80
2023/05/01 11:43:52;;;;;;;3.67;2.67;;;18.20;90.10;;;;;;6186359;23;20023;-81
2023/05/01 11:46:30;;;;;;;2.90;1.90;;;18.30;90.00;;;;;;6186380;23;20019;-81
2023/05/01 11:48:59;;;;;;;5.80;2.45;;;18.30;90.90;;;;;;6185909;23;20017;-80
2023/05/01 11:51:26;;;;;;;5.25;1.92;;;18.30;90.90;;;;;;6186492;23;20017;-80
2023/05/01 11:54:05;;;;;;;6.38;2.33;;;18.50;90.20;;;;;;6159371;23;20021;-80
2023/05/01 11:56:32;;;;;;;4.43;2.43;;;18.80;87.70;;;;;;6159976;23;20047;-81
2023/05/01 11:59:08;;;;;;;5.57;2.75;;;18.90;88.30;;;;;;6134854;23;20079;-81
2023/05/01 12:01:39;;;;;;;4.20;2.25;;;18.80;85.00;;;;;;6134689;23;20013;-81
2023/05/01 12:04:07;;;;;;;3.72;1.90;;;18.80;85.10;;;;;;6185619;23;20439;-81
2023/05/01 12:06:42;;;;;;;2.63;1.80;;;18.90;86.70;;;;;;6185516;23;20013;-81
2023/05/01 12:09:15;;;;;;;3.70;1.90;;;19.00;85.30;;;;;;6159391;23;20168;-81
2023/05/01 12:11:41;;;;;;;4.20;2.05;;;18.90;82.00;;;;;;6159299;23;20045;-80
2023/05/01 12:14:08;;;;;;;3.55;2.03;;;19.10;85.70;;;;;;6159262;23;20017;-81
2023/05/01 12:16:35;;;;;;;4.22;2.08;;;19.10;83.40;;;;;;6159330;23;20017;-80
2023/05/01 12:19:01;;;;;;;3.15;1.90;;;19.10;83.30;;;;;;6159222;23;20091;-81
2023/05/01 12:21:27;;;;;;;3.95;1.95;;;19.00;82.20;;;;;;6152884;23;20086;-81
2023/05/01 12:23:53;;;;;;;2.92;1.60;;;19.00;83.10;;;;;;6159283;23;20056;-80
2023/05/01 12:26:26;;;;;;;2.63;1.70;;;19.10;84.20;;;;;;6183934;23;20009;-81
2023/05/01 12:29:00;;;;;;;3.63;2.20;;;19.10;83.10;;;;;;6184137;23;20009;-80
2023/05/01 12:31:26;;;;;;;3.15;1.75;;;19.00;81.60;;;;;;6183987;23;20401;-80
2023/05/01 12:34:03;;;;;;;2.95;1.60;;;19.10;83.50;;;;;;6184023;23;20465;-80
2023/05/01 12:36:31;;;;;;;4.00;1.88;;;19.30;87.00;;;;;;6184138;23;20017;-81
2023/05/01 12:38:59;;;;;;;2.33;1.80;;;19.50;82.60;;;;;;6184092;23;20024;-81
2023/05/01 12:41:41;;;;;;;3.50;1.88;;;19.40;81.40;;;;;;6185901;23;20009;-81
2023/05/01 12:44:29;;;;;;;4.95;2.03;;;19.50;85.10;;;;;;6184254;23;20009;-81
2023/05/01 12:46:58;;;;;;;3.15;1.70;;;19.60;86.30;;;;;;6159225;23;20013;-80
2023/05/01 12:49:25;;;;;;;3.53;1.70;;;19.50;80.30;;;;;;6159188;23;20061;-80
2023/05/01 12:51:52;;;;;;;3.33;1.70;;;19.40;82.10;;;;;;6184356;23;20088;-80
2023/05/01 12:54:36;;;;;;;2.92;1.60;;;19.40;82.00;;;;;;6185470;23;20528;-80
2023/05/01 12:57:09;;;;;;;3.38;1.67;;;19.60;84.70;;;;;;6159099;23;20469;-80